Pongnae — 3FDZ8 — position and weather

sailwx.info

Track history (hours):
 
Tides and Currents Weather Stations Pressure Air Temp Water Temp Dewpoint Dewpoint Depression Visibility Wind Speed Wind Dir Waves Ship Positions

Pongnae

Operator: V Ships Leisure SAM

Last reported at 2015-Jul-05 03:33 UTC. Time now 2015-Jul-05 04:24 UTC.
Position N 22°18' E 114°13'.

Length 171 m; draft 6.6 m.

Type: Passenger vessel. MMSI: 353669000.

Date/timePositionNaut miles runAvg speedWind from/ knotsBaromVisibWave heightAir tempDewpointWater temp
2015-Jul-05 03:33N 22°18' E 114°13'0 0.1
2015-Jul-05 02:30N 22°18' E 114°13'0 0.0
2015-Jul-05 01:33N 22°18' E 114°13'0 0.0
2015-Jul-05 00:30N 22°18' E 114°13'1 1.2
2015-Jul-04 23:33N 22°17' E 114°14'11 9.2
2015-Jul-04 22:22N 22°07' E 114°19'5 0.5
2015-Jul-04 13:26N 22°12' E 114°19'7 8.2
2015-Jul-04 12:32N 22°18' E 114°13'0 0.1
2015-Jul-04 11:32N 22°18' E 114°13'0 0.0
2015-Jul-04 10:32N 22°18' E 114°13'0 0.1
2015-Jul-04 09:32N 22°18' E 114°13'0 0.0
2015-Jul-04 08:32N 22°18' E 114°13'0 0.1
2015-Jul-04 07:32N 22°18' E 114°13'0 0.0
2015-Jul-04 06:32N 22°18' E 114°13'0 0.0
2015-Jul-04 05:32N 22°18' E 114°13'0 0.0
2015-Jul-04 04:31N 22°18' E 114°13'0 0.0
2015-Jul-04 03:31N 22°18' E 114°13'0 0.1
2015-Jul-04 02:31N 22°18' E 114°13'0 0.1
2015-Jul-04 01:31N 22°18' E 114°13'0 0.0
2015-Jul-04 00:31N 22°18' E 114°13'1 1.1
2015-Jul-03 23:33N 22°17' E 114°14'7 0.7
2015-Jul-03 13:19N 22°12' E 114°19'810.1
2015-Jul-03 12:33N 22°18' E 114°13'0 0.1
2015-Jul-03 11:32N 22°18' E 114°13'0 0.0
2015-Jul-03 10:32N 22°18' E 114°13'0 0.1
2015-Jul-03 09:32N 22°18' E 114°13'0 0.0
2015-Jul-03 08:32N 22°18' E 114°13'0 0.1
2015-Jul-03 07:32N 22°18' E 114°13'0 0.0
2015-Jul-03 06:32N 22°18' E 114°13'0 0.0
2015-Jul-03 05:32N 22°18' E 114°13'0 0.0
2015-Jul-03 04:32N 22°18' E 114°13'0 0.0
2015-Jul-03 03:32N 22°18' E 114°13'0 0.0
2015-Jul-03 02:32N 22°18' E 114°13'0 0.1
2015-Jul-03 01:32N 22°18' E 114°13'0 0.0
2015-Jul-03 00:32N 22°18' E 114°13'2 1.8
2015-Jul-02 23:33N 22°17' E 114°15'5 0.5
2015-Jul-02 13:22N 22°13' E 114°18'7 8.5
2015-Jul-02 12:32N 22°18' E 114°13'0 0.0
2015-Jul-02 11:29N 22°18' E 114°13'0 0.0
2015-Jul-02 10:32N 22°18' E 114°13'0 0.0
2015-Jul-02 09:32N 22°18' E 114°13'0 0.1
2015-Jul-02 08:32N 22°18' E 114°13'0 0.1
2015-Jul-02 07:32N 22°18' E 114°13'0 0.1
2015-Jul-02 06:32N 22°18' E 114°13'0 0.1
2015-Jul-02 05:32N 22°18' E 114°13'0 0.0
2015-Jul-02 04:32N 22°18' E 114°13'0 0.0
2015-Jul-02 03:32N 22°18' E 114°13'0 0.0
2015-Jul-02 02:32N 22°18' E 114°13'0 0.0
2015-Jul-02 01:32N 22°18' E 114°13'0 0.0
2015-Jul-02 00:32N 22°18' E 114°13'1 0.9
2015-Jul-01 23:33N 22°17' E 114°14'7 0.6
2015-Jul-01 13:10N 22°12' E 114°19'710.8
2015-Jul-01 12:33N 22°17' E 114°14'1 1.0
2015-Jul-01 11:32N 22°18' E 114°13'0 0.0
2015-Jul-01 10:32N 22°18' E 114°13'0 0.0
2015-Jul-01 09:32N 22°18' E 114°13'0 0.1
2015-Jul-01 08:32N 22°18' E 114°13'0 0.0
2015-Jul-01 07:32N 22°18' E 114°13'0 0.1
2015-Jul-01 06:32N 22°18' E 114°13'0 0.0
2015-Jul-01 05:32N 22°18' E 114°13'0 0.0
2015-Jul-01 04:32N 22°18' E 114°13'0 0.0
2015-Jul-01 03:32N 22°18' E 114°13'0 0.0
2015-Jul-01 02:32N 22°18' E 114°13'0 0.0
2015-Jul-01 01:32N 22°18' E 114°13'0 0.0
2015-Jul-01 00:32N 22°18' E 114°13'2 1.8
2015-Jun-30 23:34N 22°17' E 114°15'10 9.0
2015-Jun-30 22:26N 22°08' E 114°20'5 0.6
2015-Jun-30 13:27N 22°13' E 114°18'7 7.3
2015-Jun-30 12:32N 22°18' E 114°13'0 0.0
2015-Jun-30 11:29N 22°18' E 114°13'0 0.0
2015-Jun-30 10:32N 22°18' E 114°13'0 0.0
2015-Jun-30 09:32N 22°18' E 114°13'0 0.0
2015-Jun-30 08:32N 22°18' E 114°13'0 0.0
2015-Jun-30 07:32N 22°18' E 114°13'0 0.0
2015-Jun-30 06:32N 22°18' E 114°13'0 0.1
2015-Jun-30 05:32N 22°18' E 114°13'0 0.0
2015-Jun-30 04:32N 22°18' E 114°13'0 0.1
2015-Jun-30 03:29N 22°18' E 114°13'0 0.0
2015-Jun-30 02:32N 22°18' E 114°13'0 0.0
2015-Jun-30 01:32N 22°18' E 114°13'0 0.1
2015-Jun-30 00:32N 22°18' E 114°13'1 1.3
2015-Jun-29 23:33N 22°17' E 114°14'5 0.5
2015-Jun-29 13:12N 22°13' E 114°18'710.3
2015-Jun-29 12:33N 22°18' E 114°13'0 0.1
2015-Jun-29 11:33N 22°18' E 114°13'0 0.0
2015-Jun-29 10:33N 22°18' E 114°13'0 0.1
2015-Jun-29 09:33N 22°18' E 114°13'0 0.1
2015-Jun-29 08:33N 22°18' E 114°13'0 0.0
2015-Jun-29 07:33N 22°18' E 114°13'0 0.0
2015-Jun-29 06:33N 22°18' E 114°13'0 0.1
2015-Jun-29 05:33N 22°18' E 114°13'0 0.1
2015-Jun-29 04:33N 22°18' E 114°13'0 0.1
2015-Jun-29 03:33N 22°18' E 114°13'0 0.1
2015-Jun-29 02:33N 22°18' E 114°13'0 0.1
2015-Jun-29 01:33N 22°18' E 114°13'0 0.1
2015-Jun-29 00:33N 22°18' E 114°13'2 1.7
2015-Jun-28 23:33N 22°17' E 114°15'5 0.5
2015-Jun-28 13:16N 22°13' E 114°18'7 9.4
2015-Jun-28 12:33N 22°18' E 114°13'0 0.0
2015-Jun-28 11:32N 22°18' E 114°13'0 0.1
2015-Jun-28 10:32N 22°18' E 114°13'0 0.1
2015-Jun-28 09:32N 22°18' E 114°13'0 0.1
2015-Jun-28 08:32N 22°18' E 114°13'0 0.1
2015-Jun-28 07:32N 22°18' E 114°13'0 0.0
2015-Jun-28 06:32N 22°18' E 114°13'0 0.1
2015-Jun-28 05:32N 22°18' E 114°13'0 0.0
2015-Jun-28 04:32N 22°18' E 114°13'0 0.0
2015-Jun-28 03:32N 22°18' E 114°13'0 0.0
2015-Jun-28 02:29N 22°18' E 114°13'0 0.1
2015-Jun-28 01:32N 22°18' E 114°13'0 0.0
2015-Jun-28 00:32N 22°18' E 114°13'2 2.4
2015-Jun-27 23:33N 22°16' E 114°15'6 0.5
2015-Jun-27 13:17N 22°12' E 114°19'810.6
2015-Jun-27 12:33N 22°18' E 114°13'0 0.2
2015-Jun-27 11:32N 22°18' E 114°13'0 0.0
2015-Jun-27 10:32N 22°18' E 114°13'0 0.0
2015-Jun-27 09:32N 22°18' E 114°13'0 0.0
2015-Jun-27 08:29N 22°18' E 114°13'0 0.1
2015-Jun-27 07:32N 22°18' E 114°13'0 0.0
2015-Jun-27 06:32N 22°18' E 114°13'0 0.0
2015-Jun-27 05:32N 22°18' E 114°13'0 0.0
2015-Jun-27 04:32N 22°18' E 114°13'0 0.1
2015-Jun-27 03:32N 22°18' E 114°13'0 0.0
2015-Jun-27 02:32N 22°18' E 114°13'0 0.0
2015-Jun-27 01:32N 22°18' E 114°13'0 0.0
2015-Jun-27 00:32N 22°18' E 114°13'2 2.4
2015-Jun-26 23:33N 22°16' E 114°15'8 7.9
2015-Jun-26 22:29N 22°09' E 114°20'5 0.5
2015-Jun-26 13:29N 22°13' E 114°17'6 5.8
2015-Jun-26 12:30N 22°18' E 114°13'0 0.0
2015-Jun-26 11:33N 22°18' E 114°13'0 0.0
2015-Jun-26 10:33N 22°18' E 114°13'0 0.0
2015-Jun-26 09:33N 22°18' E 114°13'0 0.0
2015-Jun-26 08:33N 22°18' E 114°13'0 0.1
2015-Jun-26 07:33N 22°18' E 114°13'0 0.1
2015-Jun-26 06:33N 22°18' E 114°13'0 0.1
2015-Jun-26 05:33N 22°18' E 114°13'0 0.0
2015-Jun-26 04:33N 22°18' E 114°13'0 0.1
2015-Jun-26 03:33N 22°18' E 114°13'0 0.1
2015-Jun-26 02:33N 22°18' E 114°13'0 0.1
2015-Jun-26 01:33N 22°18' E 114°13'0 0.0
2015-Jun-26 00:33N 22°18' E 114°13'1 0.9
2015-Jun-25 23:33N 22°17' E 114°14'7 0.7
2015-Jun-25 13:20N 22°12' E 114°19'810.1
2015-Jun-25 12:33N 22°18' E 114°13'0 0.0
2015-Jun-25 11:31N 22°18' E 114°13'0 0.0
2015-Jun-25 10:31N 22°18' E 114°13'0 0.1
2015-Jun-25 09:31N 22°18' E 114°13'0 0.1
2015-Jun-25 08:31N 22°18' E 114°13'0 0.0
2015-Jun-25 07:31N 22°18' E 114°13'0 0.0
2015-Jun-25 06:31N 22°18' E 114°13'0 0.1
2015-Jun-25 05:31N 22°18' E 114°13'0 0.1
2015-Jun-25 04:31N 22°18' E 114°13'  
Track history (hours):
 
Tides and Currents Weather Stations Pressure Air Temp Water Temp Dewpoint Dewpoint Depression Visibility Wind Speed Wind Dir Waves Ship Positions

Pongnae

Operator: V Ships Leisure SAM

Last reported at 2015-Jul-05 03:33 UTC. Time now 2015-Jul-05 04:24 UTC.
Position N 22°18' E 114°13'.

Length 171 m; draft 6.6 m.

Type: Passenger vessel. MMSI: 353669000.

Date/timePositionNaut miles runAvg speedWind from/ knotsBaromVisibWave heightAir tempDewpointWater temp
2015-Jul-05 03:33N 22°18' E 114°13'0 0.1
2015-Jul-05 02:30N 22°18' E 114°13'0 0.0
2015-Jul-05 01:33N 22°18' E 114°13'0 0.0
2015-Jul-05 00:30N 22°18' E 114°13'1 1.2
2015-Jul-04 23:33N 22°17' E 114°14'11 9.2
2015-Jul-04 22:22N 22°07' E 114°19'5 0.5
2015-Jul-04 13:26N 22°12' E 114°19'7 8.2
2015-Jul-04 12:32N 22°18' E 114°13'0 0.1
2015-Jul-04 11:32N 22°18' E 114°13'0 0.0
2015-Jul-04 10:32N 22°18' E 114°13'0 0.1
2015-Jul-04 09:32N 22°18' E 114°13'0 0.0
2015-Jul-04 08:32N 22°18' E 114°13'0 0.1
2015-Jul-04 07:32N 22°18' E 114°13'0 0.0
2015-Jul-04 06:32N 22°18' E 114°13'0 0.0
2015-Jul-04 05:32N 22°18' E 114°13'0 0.0
2015-Jul-04 04:31N 22°18' E 114°13'0 0.0
2015-Jul-04 03:31N 22°18' E 114°13'0 0.1
2015-Jul-04 02:31N 22°18' E 114°13'0 0.1
2015-Jul-04 01:31N 22°18' E 114°13'0 0.0
2015-Jul-04 00:31N 22°18' E 114°13'1 1.1
2015-Jul-03 23:33N 22°17' E 114°14'7 0.7
2015-Jul-03 13:19N 22°12' E 114°19'810.1
2015-Jul-03 12:33N 22°18' E 114°13'0 0.1
2015-Jul-03 11:32N 22°18' E 114°13'0 0.0
2015-Jul-03 10:32N 22°18' E 114°13'0 0.1
2015-Jul-03 09:32N 22°18' E 114°13'0 0.0
2015-Jul-03 08:32N 22°18' E 114°13'0 0.1
2015-Jul-03 07:32N 22°18' E 114°13'0 0.0
2015-Jul-03 06:32N 22°18' E 114°13'0 0.0
2015-Jul-03 05:32N 22°18' E 114°13'0 0.0
2015-Jul-03 04:32N 22°18' E 114°13'0 0.0
2015-Jul-03 03:32N 22°18' E 114°13'0 0.0
2015-Jul-03 02:32N 22°18' E 114°13'0 0.1
2015-Jul-03 01:32N 22°18' E 114°13'0 0.0
2015-Jul-03 00:32N 22°18' E 114°13'2 1.8
2015-Jul-02 23:33N 22°17' E 114°15'5 0.5
2015-Jul-02 13:22N 22°13' E 114°18'7 8.5
2015-Jul-02 12:32N 22°18' E 114°13'0 0.0
2015-Jul-02 11:29N 22°18' E 114°13'0 0.0
2015-Jul-02 10:32N 22°18' E 114°13'0 0.0
2015-Jul-02 09:32N 22°18' E 114°13'0 0.1
2015-Jul-02 08:32N 22°18' E 114°13'0 0.1
2015-Jul-02 07:32N 22°18' E 114°13'0 0.1
2015-Jul-02 06:32N 22°18' E 114°13'0 0.1
2015-Jul-02 05:32N 22°18' E 114°13'0 0.0
2015-Jul-02 04:32N 22°18' E 114°13'0 0.0
2015-Jul-02 03:32N 22°18' E 114°13'0 0.0
2015-Jul-02 02:32N 22°18' E 114°13'0 0.0
2015-Jul-02 01:32N 22°18' E 114°13'0 0.0
2015-Jul-02 00:32N 22°18' E 114°13'1 0.9
2015-Jul-01 23:33N 22°17' E 114°14'7 0.6
2015-Jul-01 13:10N 22°12' E 114°19'710.8
2015-Jul-01 12:33N 22°17' E 114°14'1 1.0
2015-Jul-01 11:32N 22°18' E 114°13'0 0.0
2015-Jul-01 10:32N 22°18' E 114°13'0 0.0
2015-Jul-01 09:32N 22°18' E 114°13'0 0.1
2015-Jul-01 08:32N 22°18' E 114°13'0 0.0
2015-Jul-01 07:32N 22°18' E 114°13'0 0.1
2015-Jul-01 06:32N 22°18' E 114°13'0 0.0
2015-Jul-01 05:32N 22°18' E 114°13'0 0.0
2015-Jul-01 04:32N 22°18' E 114°13'0 0.0
2015-Jul-01 03:32N 22°18' E 114°13'0 0.0
2015-Jul-01 02:32N 22°18' E 114°13'0 0.0
2015-Jul-01 01:32N 22°18' E 114°13'0 0.0
2015-Jul-01 00:32N 22°18' E 114°13'2 1.8
2015-Jun-30 23:34N 22°17' E 114°15'10 9.0
2015-Jun-30 22:26N 22°08' E 114°20'5 0.6
2015-Jun-30 13:27N 22°13' E 114°18'7 7.3
2015-Jun-30 12:32N 22°18' E 114°13'0 0.0
2015-Jun-30 11:29N 22°18' E 114°13'0 0.0
2015-Jun-30 10:32N 22°18' E 114°13'0 0.0
2015-Jun-30 09:32N 22°18' E 114°13'0 0.0
2015-Jun-30 08:32N 22°18' E 114°13'0 0.0
2015-Jun-30 07:32N 22°18' E 114°13'0 0.0
2015-Jun-30 06:32N 22°18' E 114°13'0 0.1
2015-Jun-30 05:32N 22°18' E 114°13'0 0.0
2015-Jun-30 04:32N 22°18' E 114°13'0 0.1
2015-Jun-30 03:29N 22°18' E 114°13'0 0.0
2015-Jun-30 02:32N 22°18' E 114°13'0 0.0
2015-Jun-30 01:32N 22°18' E 114°13'0 0.1
2015-Jun-30 00:32N 22°18' E 114°13'1 1.3
2015-Jun-29 23:33N 22°17' E 114°14'5 0.5
2015-Jun-29 13:12N 22°13' E 114°18'710.3
2015-Jun-29 12:33N 22°18' E 114°13'0 0.1
2015-Jun-29 11:33N 22°18' E 114°13'0 0.0
2015-Jun-29 10:33N 22°18' E 114°13'0 0.1
2015-Jun-29 09:33N 22°18' E 114°13'0 0.1
2015-Jun-29 08:33N 22°18' E 114°13'0 0.0
2015-Jun-29 07:33N 22°18' E 114°13'0 0.0
2015-Jun-29 06:33N 22°18' E 114°13'0 0.1
2015-Jun-29 05:33N 22°18' E 114°13'0 0.1
2015-Jun-29 04:33N 22°18' E 114°13'0 0.1
2015-Jun-29 03:33N 22°18' E 114°13'0 0.1
2015-Jun-29 02:33N 22°18' E 114°13'0 0.1
2015-Jun-29 01:33N 22°18' E 114°13'0 0.1
2015-Jun-29 00:33N 22°18' E 114°13'2 1.7
2015-Jun-28 23:33N 22°17' E 114°15'5 0.5
2015-Jun-28 13:16N 22°13' E 114°18'7 9.4
2015-Jun-28 12:33N 22°18' E 114°13'0 0.0
2015-Jun-28 11:32N 22°18' E 114°13'0 0.1
2015-Jun-28 10:32N 22°18' E 114°13'0 0.1
2015-Jun-28 09:32N 22°18' E 114°13'0 0.1
2015-Jun-28 08:32N 22°18' E 114°13'0 0.1
2015-Jun-28 07:32N 22°18' E 114°13'0 0.0
2015-Jun-28 06:32N 22°18' E 114°13'0 0.1
2015-Jun-28 05:32N 22°18' E 114°13'0 0.0
2015-Jun-28 04:32N 22°18' E 114°13'0 0.0
2015-Jun-28 03:32N 22°18' E 114°13'0 0.0
2015-Jun-28 02:29N 22°18' E 114°13'0 0.1
2015-Jun-28 01:32N 22°18' E 114°13'0 0.0
2015-Jun-28 00:32N 22°18' E 114°13'2 2.4
2015-Jun-27 23:33N 22°16' E 114°15'6 0.5
2015-Jun-27 13:17N 22°12' E 114°19'810.6
2015-Jun-27 12:33N 22°18' E 114°13'0 0.2
2015-Jun-27 11:32N 22°18' E 114°13'0 0.0
2015-Jun-27 10:32N 22°18' E 114°13'0 0.0
2015-Jun-27 09:32N 22°18' E 114°13'0 0.0
2015-Jun-27 08:29N 22°18' E 114°13'0 0.1
2015-Jun-27 07:32N 22°18' E 114°13'0 0.0
2015-Jun-27 06:32N 22°18' E 114°13'0 0.0
2015-Jun-27 05:32N 22°18' E 114°13'0 0.0
2015-Jun-27 04:32N 22°18' E 114°13'0 0.1
2015-Jun-27 03:32N 22°18' E 114°13'0 0.0
2015-Jun-27 02:32N 22°18' E 114°13'0 0.0
2015-Jun-27 01:32N 22°18' E 114°13'0 0.0
2015-Jun-27 00:32N 22°18' E 114°13'2 2.4
2015-Jun-26 23:33N 22°16' E 114°15'8 7.9
2015-Jun-26 22:29N 22°09' E 114°20'5 0.5
2015-Jun-26 13:29N 22°13' E 114°17'6 5.8
2015-Jun-26 12:30N 22°18' E 114°13'0 0.0
2015-Jun-26 11:33N 22°18' E 114°13'0 0.0
2015-Jun-26 10:33N 22°18' E 114°13'0 0.0
2015-Jun-26 09:33N 22°18' E 114°13'0 0.0
2015-Jun-26 08:33N 22°18' E 114°13'0 0.1
2015-Jun-26 07:33N 22°18' E 114°13'0 0.1
2015-Jun-26 06:33N 22°18' E 114°13'0 0.1
2015-Jun-26 05:33N 22°18' E 114°13'0 0.0
2015-Jun-26 04:33N 22°18' E 114°13'0 0.1
2015-Jun-26 03:33N 22°18' E 114°13'0 0.1
2015-Jun-26 02:33N 22°18' E 114°13'0 0.1
2015-Jun-26 01:33N 22°18' E 114°13'0 0.0
2015-Jun-26 00:33N 22°18' E 114°13'1 0.9
2015-Jun-25 23:33N 22°17' E 114°14'7 0.7
2015-Jun-25 13:20N 22°12' E 114°19'810.1
2015-Jun-25 12:33N 22°18' E 114°13'0 0.0
2015-Jun-25 11:31N 22°18' E 114°13'0 0.0
2015-Jun-25 10:31N 22°18' E 114°13'0 0.1
2015-Jun-25 09:31N 22°18' E 114°13'0 0.1
2015-Jun-25 08:31N 22°18' E 114°13'0 0.0
2015-Jun-25 07:31N 22°18' E 114°13'0 0.0
2015-Jun-25 06:31N 22°18' E 114°13'0 0.1
2015-Jun-25 05:31N 22°18' E 114°13'0 0.1
2015-Jun-25 04:31N 22°18' E 114°13'  

Dump ship's entire track history